Terminal Aerodrome Forecast
Issued by NWS Billings, MT

Home | Current Version | Previous Version | Graphics & Text | Print | Product List | Glossary Off
Versions: 1 2 3 4 5 6 7 8 9 10 11 12 13 14 15

000
FTUS45 KBYZ 240527
TAFMLS
TAF
KMLS 240527Z 2406/2506 26010KT P6SM SCT100 WS017/30031KT
     FM241600 28014G21KT P6SM SCT120
     FM250200 30009KT P6SM BKN090=

USA.gov is the U.S. government's official web portal to all federal, state and local government web resources and services.